Fall River Mills, CA (96028)

11:52 AM PDT on August 29, 2014 (GMT -0700)
Glenburn | Change Station
CLOSE
Current Station
Personal Weather Station
Location: Fall River Mills, CA
Elevation: 3347 ft
Nearby Weather Stations

Elev 3347 ft 41.08 °N, 121.54 °W | Updated 9 seconds ago

Clear
Clear
95.0 °F
Feels Like 91 °F
N
4.6
Wind Variable Wind from WNW
Gusts 4.6 mph

Today
High -- | Low -- °F
--% Chance of Precip.
Yesterday
High -- | Low -- °F
Precip. -- in
6:29 AM 7:43 PM
Waxing Crescent, 16% visible
Pressure 29.98 in
Visibility 10.0 miles
Clouds Clear
Heat Index 91 °F
Dew Point 43 °F
Humidity 17%
Rainfall 0.00 in
Snow Depth Not available.
UV 7 out of 12
Pollen 8.80 out of 12
Air Quality Not available.
Flu Activity Not available.
METAR KMHS 291756Z AUTO 00000KT 10SM CLR 28/10 A3003 RMK AO2 SLP151 T02780100 10278 20106 56007

More Conditions Fewer Conditions

Pressure 29.98 in
Visibility 10.0 miles
Clouds Clear
Heat Index 91 °F
Dew Point 43 °F
Humidity 17%
Rainfall 0.00 in
Snow Depth Not available.
UV 7 out of 12
Pollen 8.80 out of 12
Air Quality Not available.
Flu Activity Not available.
METAR KMHS 291756Z AUTO 00000KT 10SM CLR 28/10 A3003 RMK AO2 SLP151 T02780100 10278 20106 56007

More Conditions Fewer Conditions

10-Day Weather Forecast

Almanac

Astronomy

Aug. 29, 2014 Rise Set
Actual Time 6:29 AM PDT 7:43 PM PDT
Civil Twilight 6:01 AM PDT 8:11 PM PDT
Nautical Twilight 5:27 AM PDT 8:45 PM PDT
Astronomical Twilight 4:51 AM PDT 9:21 PM PDT
Moon 10:26 AM PDT 9:41 PM PDT
Length of Visible Light 14h 10m
Length of Day
13h 13m
Tomorrow will be 2m 35s shorter.
Waxing Crescent, 16% of the Moon is Illuminated
Today
Waxing Crescent
Sep 2
First Quarter
Sep 8
Full
Sep 15
Last Quarter
Sep 24
New

Today's Extremes

State Highs State Lows

Community

WunderPhotos

Upload Photos

1,748,314 photos uploaded!

Nearby

Snow Depth

Station Depth Elevation
Adin Mountain 0 in 6200 ft
Cedar Pass 0 in 7100 ft
CSS Lab 0 in 6900 ft
Rubicon #2 0 in 7500 ft
Fallen Leaf 0 in 6300 ft

Earthquake Activity

City Distance Mag. Time & Date
Lakeview, Oregon 111 miles 3.0 10:47 AM PDT
2014-08-29
Lakeview, Oregon 111 miles 2.5 5:31 AM PDT
2014-08-29
Lakeview, Oregon 111 miles 2.6 5:07 AM PDT
2014-08-29
Lakeview, Oregon 111 miles 3.1 2:47 AM PDT
2014-08-29
Minimum magnitude displayed is 2.5.

Coastal Water Temperatures

Place Temperature
No Stations Reporting

Nearby Weather Stations